sensor_id;sensor_type;location;lat;lon;timestamp;P1;durP1;ratioP1;P2;durP2;ratioP2
8640;SDS011;4358;42.100;25.222;2023-02-08T00:00:51;6.03;;;3.47;;
8640;SDS011;4358;42.100;25.222;2023-02-08T00:03:20;10.33;;;6.27;;
8640;SDS011;4358;42.100;25.222;2023-02-08T00:05:47;7.70;;;4.43;;
8640;SDS011;4358;42.100;25.222;2023-02-08T00:08:14;8.50;;;4.87;;
8640;SDS011;4358;42.100;25.222;2023-02-08T00:10:41;6.93;;;4.00;;
8640;SDS011;4358;42.100;25.222;2023-02-08T00:13:09;5.90;;;4.00;;
8640;SDS011;4358;42.100;25.222;2023-02-08T00:15:39;11.17;;;4.80;;
8640;SDS011;4358;42.100;25.222;2023-02-08T00:18:06;21.63;;;5.57;;
8640;SDS011;4358;42.100;25.222;2023-02-08T00:20:34;10.13;;;5.00;;
8640;SDS011;4358;42.100;25.222;2023-02-08T00:23:03;7.50;;;4.50;;
8640;SDS011;4358;42.100;25.222;2023-02-08T00:25:30;10.43;;;5.20;;
8640;SDS011;4358;42.100;25.222;2023-02-08T00:27:57;8.87;;;4.43;;
8640;SDS011;4358;42.100;25.222;2023-02-08T00:30:24;8.93;;;4.73;;
8640;SDS011;4358;42.100;25.222;2023-02-08T00:32:51;9.00;;;5.90;;
8640;SDS011;4358;42.100;25.222;2023-02-08T00:35:18;8.27;;;4.50;;
8640;SDS011;4358;42.100;25.222;2023-02-08T00:37:46;9.97;;;4.50;;
8640;SDS011;4358;42.100;25.222;2023-02-08T00:40:13;6.03;;;3.33;;
8640;SDS011;4358;42.100;25.222;2023-02-08T00:42:40;6.03;;;3.37;;
8640;SDS011;4358;42.100;25.222;2023-02-08T00:45:07;9.30;;;4.30;;
8640;SDS011;4358;42.100;25.222;2023-02-08T00:47:34;7.43;;;4.70;;
8640;SDS011;4358;42.100;25.222;2023-02-08T00:50:01;9.93;;;4.50;;
8640;SDS011;4358;42.100;25.222;2023-02-08T00:52:28;8.80;;;4.50;;
8640;SDS011;4358;42.100;25.222;2023-02-08T00:54:56;7.40;;;4.50;;
8640;SDS011;4358;42.100;25.222;2023-02-08T00:57:23;7.73;;;4.07;;
8640;SDS011;4358;42.100;25.222;2023-02-08T00:59:50;5.40;;;3.63;;
8640;SDS011;4358;42.100;25.222;2023-02-08T01:02:17;6.80;;;3.93;;
8640;SDS011;4358;42.100;25.222;2023-02-08T01:04:44;9.27;;;5.17;;
8640;SDS011;4358;42.100;25.222;2023-02-08T01:07:10;8.27;;;4.10;;
8640;SDS011;4358;42.100;25.222;2023-02-08T01:09:37;6.93;;;3.87;;
8640;SDS011;4358;42.100;25.222;2023-02-08T01:12:06;17.33;;;6.40;;
8640;SDS011;4358;42.100;25.222;2023-02-08T01:14:32;12.83;;;6.47;;
8640;SDS011;4358;42.100;25.222;2023-02-08T01:16:59;9.30;;;4.40;;
8640;SDS011;4358;42.100;25.222;2023-02-08T01:19:26;8.40;;;5.67;;
8640;SDS011;4358;42.100;25.222;2023-02-08T01:21:53;7.33;;;4.53;;
8640;SDS011;4358;42.100;25.222;2023-02-08T01:24:20;9.03;;;5.53;;
8640;SDS011;4358;42.100;25.222;2023-02-08T01:26:47;6.83;;;4.60;;
8640;SDS011;4358;42.100;25.222;2023-02-08T01:29:15;14.37;;;6.90;;
8640;SDS011;4358;42.100;25.222;2023-02-08T01:31:43;8.67;;;4.80;;
8640;SDS011;4358;42.100;25.222;2023-02-08T01:34:10;9.07;;;5.37;;
8640;SDS011;4358;42.100;25.222;2023-02-08T01:36:38;7.23;;;4.43;;
8640;SDS011;4358;42.100;25.222;2023-02-08T01:39:05;10.57;;;3.67;;
8640;SDS011;4358;42.100;25.222;2023-02-08T01:41:33;9.60;;;5.80;;
8640;SDS011;4358;42.100;25.222;2023-02-08T01:44:04;9.40;;;5.07;;
8640;SDS011;4358;42.100;25.222;2023-02-08T01:46:35;8.63;;;4.60;;
8640;SDS011;4358;42.100;25.222;2023-02-08T01:49:06;8.40;;;4.10;;
8640;SDS011;4358;42.100;25.222;2023-02-08T01:51:36;9.10;;;4.33;;
8640;SDS011;4358;42.100;25.222;2023-02-08T01:54:08;8.77;;;4.20;;
8640;SDS011;4358;42.100;25.222;2023-02-08T01:56:37;7.03;;;4.33;;
8640;SDS011;4358;42.100;25.222;2023-02-08T01:59:07;6.50;;;4.40;;
8640;SDS011;4358;42.100;25.222;2023-02-08T02:01:40;10.70;;;4.87;;
8640;SDS011;4358;42.100;25.222;2023-02-08T02:04:08;6.53;;;3.37;;
8640;SDS011;4358;42.100;25.222;2023-02-08T02:06:36;12.63;;;4.30;;
8640;SDS011;4358;42.100;25.222;2023-02-08T02:09:08;9.77;;;4.80;;
8640;SDS011;4358;42.100;25.222;2023-02-08T02:11:40;5.87;;;3.63;;
8640;SDS011;4358;42.100;25.222;2023-02-08T02:14:08;7.20;;;3.57;;
8640;SDS011;4358;42.100;25.222;2023-02-08T02:16:35;10.50;;;5.93;;
8640;SDS011;4358;42.100;25.222;2023-02-08T02:19:03;7.97;;;4.90;;
8640;SDS011;4358;42.100;25.222;2023-02-08T02:21:45;5.30;;;3.90;;
8640;SDS011;4358;42.100;25.222;2023-02-08T02:27:33;5.63;;;4.03;;
8640;SDS011;4358;42.100;25.222;2023-02-08T02:30:31;5.50;;;3.77;;
8640;SDS011;4358;42.100;25.222;2023-02-08T02:33:36;6.73;;;3.90;;
8640;SDS011;4358;42.100;25.222;2023-02-08T02:36:21;8.50;;;5.17;;
8640;SDS011;4358;42.100;25.222;2023-02-08T02:38:59;8.43;;;3.70;;
8640;SDS011;4358;42.100;25.222;2023-02-08T02:41:38;8.43;;;5.03;;
8640;SDS011;4358;42.100;25.222;2023-02-08T02:44:32;8.27;;;4.00;;
8640;SDS011;4358;42.100;25.222;2023-02-08T02:47:08;4.80;;;3.00;;
8640;SDS011;4358;42.100;25.222;2023-02-08T02:49:46;10.70;;;4.33;;
8640;SDS011;4358;42.100;25.222;2023-02-08T02:52:16;7.03;;;3.97;;
8640;SDS011;4358;42.100;25.222;2023-02-08T02:54:50;5.73;;;2.93;;
8640;SDS011;4358;42.100;25.222;2023-02-08T02:57:24;8.77;;;5.10;;
8640;SDS011;4358;42.100;25.222;2023-02-08T02:59:54;10.27;;;4.70;;
8640;SDS011;4358;42.100;25.222;2023-02-08T03:02:25;5.97;;;4.27;;
8640;SDS011;4358;42.100;25.222;2023-02-08T03:04:55;6.77;;;3.60;;
8640;SDS011;4358;42.100;25.222;2023-02-08T03:10:30;8.93;;;3.93;;
8640;SDS011;4358;42.100;25.222;2023-02-08T03:13:12;9.70;;;3.93;;
8640;SDS011;4358;42.100;25.222;2023-02-08T03:15:53;4.67;;;3.37;;
8640;SDS011;4358;42.100;25.222;2023-02-08T03:18:28;4.80;;;3.77;;
8640;SDS011;4358;42.100;25.222;2023-02-08T03:21:05;8.03;;;4.50;;
8640;SDS011;4358;42.100;25.222;2023-02-08T03:23:39;5.10;;;3.47;;
8640;SDS011;4358;42.100;25.222;2023-02-08T03:26:12;3.63;;;2.70;;
8640;SDS011;4358;42.100;25.222;2023-02-08T03:28:46;6.30;;;2.77;;
8640;SDS011;4358;42.100;25.222;2023-02-08T03:31:18;5.03;;;3.50;;
8640;SDS011;4358;42.100;25.222;2023-02-08T03:33:55;8.40;;;3.13;;
8640;SDS011;4358;42.100;25.222;2023-02-08T03:36:29;4.47;;;2.90;;
8640;SDS011;4358;42.100;25.222;2023-02-08T03:39:00;5.77;;;3.73;;
8640;SDS011;4358;42.100;25.222;2023-02-08T03:41:31;4.87;;;3.73;;
8640;SDS011;4358;42.100;25.222;2023-02-08T03:44:02;8.10;;;4.40;;
8640;SDS011;4358;42.100;25.222;2023-02-08T03:46:34;7.17;;;4.20;;
8640;SDS011;4358;42.100;25.222;2023-02-08T03:49:06;7.70;;;3.43;;
8640;SDS011;4358;42.100;25.222;2023-02-08T03:51:38;5.37;;;3.93;;
8640;SDS011;4358;42.100;25.222;2023-02-08T03:54:06;4.80;;;2.93;;
8640;SDS011;4358;42.100;25.222;2023-02-08T03:56:40;8.50;;;3.53;;
8640;SDS011;4358;42.100;25.222;2023-02-08T03:59:13;6.37;;;3.70;;
8640;SDS011;4358;42.100;25.222;2023-02-08T04:01:47;7.87;;;4.23;;
8640;SDS011;4358;42.100;25.222;2023-02-08T04:04:17;8.60;;;3.80;;
8640;SDS011;4358;42.100;25.222;2023-02-08T04:06:46;4.83;;;2.87;;
8640;SDS011;4358;42.100;25.222;2023-02-08T04:09:13;7.40;;;3.57;;
8640;SDS011;4358;42.100;25.222;2023-02-08T04:11:40;4.17;;;3.00;;
8640;SDS011;4358;42.100;25.222;2023-02-08T04:14:07;6.37;;;3.90;;
8640;SDS011;4358;42.100;25.222;2023-02-08T04:16:33;7.83;;;3.47;;
8640;SDS011;4358;42.100;25.222;2023-02-08T04:19:00;7.03;;;4.07;;
8640;SDS011;4358;42.100;25.222;2023-02-08T04:21:27;5.03;;;3.43;;
8640;SDS011;4358;42.100;25.222;2023-02-08T04:23:55;4.93;;;3.33;;
8640;SDS011;4358;42.100;25.222;2023-02-08T04:26:22;5.60;;;2.73;;
8640;SDS011;4358;42.100;25.222;2023-02-08T04:28:49;6.40;;;3.50;;
8640;SDS011;4358;42.100;25.222;2023-02-08T04:31:16;7.83;;;3.43;;
8640;SDS011;4358;42.100;25.222;2023-02-08T04:33:42;8.27;;;4.00;;
8640;SDS011;4358;42.100;25.222;2023-02-08T04:36:10;7.97;;;4.83;;
8640;SDS011;4358;42.100;25.222;2023-02-08T04:38:36;6.43;;;4.13;;
8640;SDS011;4358;42.100;25.222;2023-02-08T04:41:05;10.00;;;4.00;;
8640;SDS011;4358;42.100;25.222;2023-02-08T04:43:32;5.33;;;3.73;;
8640;SDS011;4358;42.100;25.222;2023-02-08T04:45:58;8.50;;;4.50;;
8640;SDS011;4358;42.100;25.222;2023-02-08T04:48:25;4.40;;;3.47;;
8640;SDS011;4358;42.100;25.222;2023-02-08T04:50:53;6.37;;;4.27;;
8640;SDS011;4358;42.100;25.222;2023-02-08T04:53:20;13.43;;;3.90;;
8640;SDS011;4358;42.100;25.222;2023-02-08T04:55:47;8.27;;;3.93;;
8640;SDS011;4358;42.100;25.222;2023-02-08T04:58:15;8.27;;;4.50;;
8640;SDS011;4358;42.100;25.222;2023-02-08T05:00:42;9.90;;;4.33;;
8640;SDS011;4358;42.100;25.222;2023-02-08T05:03:10;7.93;;;5.07;;
8640;SDS011;4358;42.100;25.222;2023-02-08T05:05:37;10.37;;;5.43;;
8640;SDS011;4358;42.100;25.222;2023-02-08T05:08:04;9.23;;;5.50;;
8640;SDS011;4358;42.100;25.222;2023-02-08T05:10:31;14.47;;;6.20;;
8640;SDS011;4358;42.100;25.222;2023-02-08T05:12:57;10.90;;;5.83;;
8640;SDS011;4358;42.100;25.222;2023-02-08T05:15:26;12.37;;;6.57;;
8640;SDS011;4358;42.100;25.222;2023-02-08T05:17:53;12.10;;;6.53;;
8640;SDS011;4358;42.100;25.222;2023-02-08T05:20:20;12.27;;;5.50;;
8640;SDS011;4358;42.100;25.222;2023-02-08T05:22:46;8.63;;;5.13;;
8640;SDS011;4358;42.100;25.222;2023-02-08T05:25:13;11.43;;;5.30;;
8640;SDS011;4358;42.100;25.222;2023-02-08T05:27:42;8.83;;;4.73;;
8640;SDS011;4358;42.100;25.222;2023-02-08T05:30:09;8.43;;;5.13;;
8640;SDS011;4358;42.100;25.222;2023-02-08T05:32:38;11.03;;;5.87;;
8640;SDS011;4358;42.100;25.222;2023-02-08T05:35:05;17.30;;;7.30;;
8640;SDS011;4358;42.100;25.222;2023-02-08T05:37:32;18.67;;;7.83;;
8640;SDS011;4358;42.100;25.222;2023-02-08T05:39:59;25.13;;;11.00;;
8640;SDS011;4358;42.100;25.222;2023-02-08T05:42:26;25.83;;;13.00;;
8640;SDS011;4358;42.100;25.222;2023-02-08T05:44:53;15.07;;;8.27;;
8640;SDS011;4358;42.100;25.222;2023-02-08T05:47:20;17.17;;;8.90;;
8640;SDS011;4358;42.100;25.222;2023-02-08T05:49:48;19.13;;;8.30;;
8640;SDS011;4358;42.100;25.222;2023-02-08T05:52:15;14.60;;;7.83;;
8640;SDS011;4358;42.100;25.222;2023-02-08T05:54:42;22.47;;;7.37;;
8640;SDS011;4358;42.100;25.222;2023-02-08T05:57:09;10.27;;;6.47;;
8640;SDS011;4358;42.100;25.222;2023-02-08T05:59:36;15.53;;;5.53;;
8640;SDS011;4358;42.100;25.222;2023-02-08T06:02:02;12.10;;;6.77;;
8640;SDS011;4358;42.100;25.222;2023-02-08T06:04:29;12.03;;;6.63;;
8640;SDS011;4358;42.100;25.222;2023-02-08T06:06:57;14.93;;;7.93;;
8640;SDS011;4358;42.100;25.222;2023-02-08T06:09:25;23.87;;;11.00;;
8640;SDS011;4358;42.100;25.222;2023-02-08T06:11:51;16.67;;;7.93;;
8640;SDS011;4358;42.100;25.222;2023-02-08T06:14:18;14.07;;;8.03;;
8640;SDS011;4358;42.100;25.222;2023-02-08T06:16:45;11.57;;;6.07;;
8640;SDS011;4358;42.100;25.222;2023-02-08T06:19:12;12.83;;;7.57;;
8640;SDS011;4358;42.100;25.222;2023-02-08T06:21:39;9.13;;;5.50;;
8640;SDS011;4358;42.100;25.222;2023-02-08T06:24:07;8.60;;;6.03;;
8640;SDS011;4358;42.100;25.222;2023-02-08T06:26:35;10.63;;;6.77;;
8640;SDS011;4358;42.100;25.222;2023-02-08T06:29:02;10.90;;;6.37;;
8640;SDS011;4358;42.100;25.222;2023-02-08T06:31:29;25.60;;;10.00;;
8640;SDS011;4358;42.100;25.222;2023-02-08T06:33:56;12.87;;;6.87;;
8640;SDS011;4358;42.100;25.222;2023-02-08T06:36:23;34.73;;;13.50;;
8640;SDS011;4358;42.100;25.222;2023-02-08T06:38:50;8.13;;;5.73;;
8640;SDS011;4358;42.100;25.222;2023-02-08T06:41:18;10.10;;;4.83;;
8640;SDS011;4358;42.100;25.222;2023-02-08T06:43:45;13.47;;;5.33;;
8640;SDS011;4358;42.100;25.222;2023-02-08T06:46:12;10.33;;;6.00;;
8640;SDS011;4358;42.100;25.222;2023-02-08T06:48:39;8.17;;;4.87;;
8640;SDS011;4358;42.100;25.222;2023-02-08T06:51:05;10.47;;;5.27;;
8640;SDS011;4358;42.100;25.222;2023-02-08T06:53:32;12.73;;;5.67;;
8640;SDS011;4358;42.100;25.222;2023-02-08T06:55:59;10.53;;;6.10;;
8640;SDS011;4358;42.100;25.222;2023-02-08T06:58:27;9.53;;;5.43;;
8640;SDS011;4358;42.100;25.222;2023-02-08T07:00:55;8.87;;;4.93;;
8640;SDS011;4358;42.100;25.222;2023-02-08T07:03:22;10.23;;;5.00;;
8640;SDS011;4358;42.100;25.222;2023-02-08T07:05:49;10.80;;;5.67;;
8640;SDS011;4358;42.100;25.222;2023-02-08T07:08:16;15.33;;;6.17;;
8640;SDS011;4358;42.100;25.222;2023-02-08T07:10:43;9.63;;;6.23;;
8640;SDS011;4358;42.100;25.222;2023-02-08T07:13:10;11.33;;;5.13;;
8640;SDS011;4358;42.100;25.222;2023-02-08T07:15:38;7.43;;;5.27;;
8640;SDS011;4358;42.100;25.222;2023-02-08T07:18:05;9.90;;;5.23;;
8640;SDS011;4358;42.100;25.222;2023-02-08T07:20:32;8.83;;;4.90;;
8640;SDS011;4358;42.100;25.222;2023-02-08T07:22:58;8.93;;;4.33;;
8640;SDS011;4358;42.100;25.222;2023-02-08T07:25:25;7.70;;;4.80;;
8640;SDS011;4358;42.100;25.222;2023-02-08T07:27:52;8.10;;;4.33;;
8640;SDS011;4358;42.100;25.222;2023-02-08T07:30:19;7.60;;;4.10;;
8640;SDS011;4358;42.100;25.222;2023-02-08T07:32:47;21.73;;;5.67;;
8640;SDS011;4358;42.100;25.222;2023-02-08T07:35:15;5.67;;;3.87;;
8640;SDS011;4358;42.100;25.222;2023-02-08T07:37:41;7.20;;;4.97;;
8640;SDS011;4358;42.100;25.222;2023-02-08T07:40:09;8.23;;;5.80;;
8640;SDS011;4358;42.100;25.222;2023-02-08T07:42:36;10.13;;;5.57;;
8640;SDS011;4358;42.100;25.222;2023-02-08T07:45:03;7.50;;;3.40;;
8640;SDS011;4358;42.100;25.222;2023-02-08T07:47:30;9.47;;;5.27;;
8640;SDS011;4358;42.100;25.222;2023-02-08T07:49:58;10.87;;;4.97;;
8640;SDS011;4358;42.100;25.222;2023-02-08T07:52:25;6.07;;;3.93;;
8640;SDS011;4358;42.100;25.222;2023-02-08T07:54:53;10.63;;;6.13;;
8640;SDS011;4358;42.100;25.222;2023-02-08T07:57:20;9.80;;;5.67;;
8640;SDS011;4358;42.100;25.222;2023-02-08T07:59:46;8.40;;;5.33;;
8640;SDS011;4358;42.100;25.222;2023-02-08T08:02:14;10.03;;;5.23;;
8640;SDS011;4358;42.100;25.222;2023-02-08T08:04:41;8.70;;;5.47;;
8640;SDS011;4358;42.100;25.222;2023-02-08T08:07:09;7.37;;;4.40;;
8640;SDS011;4358;42.100;25.222;2023-02-08T08:09:36;7.93;;;4.33;;
8640;SDS011;4358;42.100;25.222;2023-02-08T08:12:03;9.53;;;3.73;;
8640;SDS011;4358;42.100;25.222;2023-02-08T08:14:30;6.77;;;4.13;;
8640;SDS011;4358;42.100;25.222;2023-02-08T08:16:57;8.37;;;4.70;;
8640;SDS011;4358;42.100;25.222;2023-02-08T08:19:24;7.57;;;4.10;;
8640;SDS011;4358;42.100;25.222;2023-02-08T08:21:51;8.07;;;5.27;;
8640;SDS011;4358;42.100;25.222;2023-02-08T08:24:19;8.03;;;3.90;;
8640;SDS011;4358;42.100;25.222;2023-02-08T08:26:46;5.67;;;4.00;;
8640;SDS011;4358;42.100;25.222;2023-02-08T08:29:13;8.00;;;4.63;;
8640;SDS011;4358;42.100;25.222;2023-02-08T08:31:41;7.43;;;4.10;;
8640;SDS011;4358;42.100;25.222;2023-02-08T08:34:08;9.20;;;5.07;;
8640;SDS011;4358;42.100;25.222;2023-02-08T08:36:35;12.70;;;5.10;;
8640;SDS011;4358;42.100;25.222;2023-02-08T08:39:02;6.93;;;3.43;;
8640;SDS011;4358;42.100;25.222;2023-02-08T08:41:30;7.77;;;3.37;;
8640;SDS011;4358;42.100;25.222;2023-02-08T08:43:57;6.23;;;3.93;;
8640;SDS011;4358;42.100;25.222;2023-02-08T08:46:24;8.90;;;4.20;;
8640;SDS011;4358;42.100;25.222;2023-02-08T08:48:50;15.10;;;5.83;;
8640;SDS011;4358;42.100;25.222;2023-02-08T08:51:17;6.50;;;4.00;;
8640;SDS011;4358;42.100;25.222;2023-02-08T08:53:44;4.87;;;2.90;;
8640;SDS011;4358;42.100;25.222;2023-02-08T08:56:11;6.13;;;3.80;;
8640;SDS011;4358;42.100;25.222;2023-02-08T08:58:39;7.13;;;4.37;;
8640;SDS011;4358;42.100;25.222;2023-02-08T09:01:07;4.67;;;2.97;;
8640;SDS011;4358;42.100;25.222;2023-02-08T09:03:34;3.40;;;2.53;;
8640;SDS011;4358;42.100;25.222;2023-02-08T09:06:01;4.63;;;2.53;;
8640;SDS011;4358;42.100;25.222;2023-02-08T09:08:28;6.30;;;2.80;;
8640;SDS011;4358;42.100;25.222;2023-02-08T09:10:55;6.03;;;3.57;;
8640;SDS011;4358;42.100;25.222;2023-02-08T09:13:22;6.37;;;3.10;;
8640;SDS011;4358;42.100;25.222;2023-02-08T09:15:50;4.80;;;3.00;;
8640;SDS011;4358;42.100;25.222;2023-02-08T09:18:17;5.30;;;2.80;;
8640;SDS011;4358;42.100;25.222;2023-02-08T09:20:43;4.60;;;2.97;;
8640;SDS011;4358;42.100;25.222;2023-02-08T09:23:10;8.87;;;3.23;;
8640;SDS011;4358;42.100;25.222;2023-02-08T09:25:38;7.93;;;3.27;;
8640;SDS011;4358;42.100;25.222;2023-02-08T09:28:05;6.70;;;3.33;;
8640;SDS011;4358;42.100;25.222;2023-02-08T09:30:32;6.03;;;2.83;;
8640;SDS011;4358;42.100;25.222;2023-02-08T09:33:00;6.93;;;3.53;;
8640;SDS011;4358;42.100;25.222;2023-02-08T09:35:27;4.93;;;3.13;;
8640;SDS011;4358;42.100;25.222;2023-02-08T09:37:55;5.77;;;3.40;;
8640;SDS011;4358;42.100;25.222;2023-02-08T09:40:27;8.00;;;3.40;;
8640;SDS011;4358;42.100;25.222;2023-02-08T09:43:03;6.07;;;3.50;;
8640;SDS011;4358;42.100;25.222;2023-02-08T09:45:37;5.80;;;3.17;;
8640;SDS011;4358;42.100;25.222;2023-02-08T09:48:15;5.93;;;3.10;;
8640;SDS011;4358;42.100;25.222;2023-02-08T09:50:45;7.10;;;3.20;;
8640;SDS011;4358;42.100;25.222;2023-02-08T09:53:16;7.60;;;3.30;;
8640;SDS011;4358;42.100;25.222;2023-02-08T09:55:48;6.57;;;3.20;;
8640;SDS011;4358;42.100;25.222;2023-02-08T09:58:20;7.37;;;3.90;;
8640;SDS011;4358;42.100;25.222;2023-02-08T10:00:53;14.17;;;3.87;;
8640;SDS011;4358;42.100;25.222;2023-02-08T10:03:24;4.77;;;3.03;;
8640;SDS011;4358;42.100;25.222;2023-02-08T10:05:55;7.53;;;2.93;;
8640;SDS011;4358;42.100;25.222;2023-02-08T10:08:22;5.93;;;3.43;;
8640;SDS011;4358;42.100;25.222;2023-02-08T10:10:51;5.07;;;3.00;;
8640;SDS011;4358;42.100;25.222;2023-02-08T10:13:30;4.73;;;2.67;;
8640;SDS011;4358;42.100;25.222;2023-02-08T10:16:17;6.03;;;3.10;;
8640;SDS011;4358;42.100;25.222;2023-02-08T10:19:07;4.37;;;3.00;;
8640;SDS011;4358;42.100;25.222;2023-02-08T10:21:50;6.20;;;3.63;;
8640;SDS011;4358;42.100;25.222;2023-02-08T10:24:34;6.37;;;3.23;;
8640;SDS011;4358;42.100;25.222;2023-02-08T10:27:13;9.17;;;3.50;;
8640;SDS011;4358;42.100;25.222;2023-02-08T10:29:48;5.60;;;3.00;;
8640;SDS011;4358;42.100;25.222;2023-02-08T10:32:38;6.77;;;3.50;;
8640;SDS011;4358;42.100;25.222;2023-02-08T10:35:24;6.13;;;2.90;;
8640;SDS011;4358;42.100;25.222;2023-02-08T10:37:56;4.57;;;2.87;;
8640;SDS011;4358;42.100;25.222;2023-02-08T10:40:33;4.20;;;2.57;;
8640;SDS011;4358;42.100;25.222;2023-02-08T10:43:08;4.37;;;2.70;;
8640;SDS011;4358;42.100;25.222;2023-02-08T10:45:44;7.37;;;3.37;;
8640;SDS011;4358;42.100;25.222;2023-02-08T10:48:20;4.63;;;2.80;;
8640;SDS011;4358;42.100;25.222;2023-02-08T10:50:56;5.57;;;3.40;;
8640;SDS011;4358;42.100;25.222;2023-02-08T10:53:22;7.50;;;3.80;;
8640;SDS011;4358;42.100;25.222;2023-02-08T10:55:49;6.90;;;3.73;;
8640;SDS011;4358;42.100;25.222;2023-02-08T10:58:17;6.73;;;3.47;;
8640;SDS011;4358;42.100;25.222;2023-02-08T11:00:46;6.03;;;3.40;;
8640;SDS011;4358;42.100;25.222;2023-02-08T11:03:16;5.60;;;3.27;;
8640;SDS011;4358;42.100;25.222;2023-02-08T11:05:46;6.47;;;3.63;;
8640;SDS011;4358;42.100;25.222;2023-02-08T11:08:15;5.43;;;3.13;;
8640;SDS011;4358;42.100;25.222;2023-02-08T11:10:44;5.23;;;2.93;;
8640;SDS011;4358;42.100;25.222;2023-02-08T11:13:21;5.87;;;3.30;;
8640;SDS011;4358;42.100;25.222;2023-02-08T11:15:50;7.47;;;3.70;;
8640;SDS011;4358;42.100;25.222;2023-02-08T11:18:21;9.67;;;3.50;;
8640;SDS011;4358;42.100;25.222;2023-02-08T11:20:50;6.83;;;4.00;;
8640;SDS011;4358;42.100;25.222;2023-02-08T11:23:25;8.03;;;3.80;;
8640;SDS011;4358;42.100;25.222;2023-02-08T11:25:54;7.40;;;3.97;;
8640;SDS011;4358;42.100;25.222;2023-02-08T11:28:39;6.53;;;3.73;;
8640;SDS011;4358;42.100;25.222;2023-02-08T11:31:09;7.77;;;3.83;;
8640;SDS011;4358;42.100;25.222;2023-02-08T11:33:56;5.40;;;3.03;;
8640;SDS011;4358;42.100;25.222;2023-02-08T11:36:24;6.30;;;3.00;;
8640;SDS011;4358;42.100;25.222;2023-02-08T11:38:53;4.97;;;2.77;;
8640;SDS011;4358;42.100;25.222;2023-02-08T11:41:20;5.87;;;2.97;;
8640;SDS011;4358;42.100;25.222;2023-02-08T11:43:54;6.17;;;2.83;;
8640;SDS011;4358;42.100;25.222;2023-02-08T11:46:25;4.03;;;2.50;;
8640;SDS011;4358;42.100;25.222;2023-02-08T11:48:54;5.07;;;3.03;;
8640;SDS011;4358;42.100;25.222;2023-02-08T11:51:23;6.83;;;2.73;;
8640;SDS011;4358;42.100;25.222;2023-02-08T11:53:54;5.50;;;2.93;;
8640;SDS011;4358;42.100;25.222;2023-02-08T11:56:22;7.33;;;3.17;;
8640;SDS011;4358;42.100;25.222;2023-02-08T11:58:55;4.97;;;2.67;;
8640;SDS011;4358;42.100;25.222;2023-02-08T12:01:25;8.27;;;3.67;;
8640;SDS011;4358;42.100;25.222;2023-02-08T12:03:54;5.50;;;3.10;;
8640;SDS011;4358;42.100;25.222;2023-02-08T12:06:30;5.10;;;3.10;;
8640;SDS011;4358;42.100;25.222;2023-02-08T12:09:08;5.47;;;3.40;;
8640;SDS011;4358;42.100;25.222;2023-02-08T12:11:49;6.20;;;3.00;;
8640;SDS011;4358;42.100;25.222;2023-02-08T12:14:30;5.60;;;3.27;;
8640;SDS011;4358;42.100;25.222;2023-02-08T12:17:17;4.57;;;3.00;;
8640;SDS011;4358;42.100;25.222;2023-02-08T12:20:04;9.83;;;4.53;;
8640;SDS011;4358;42.100;25.222;2023-02-08T12:22:53;5.90;;;3.43;;
8640;SDS011;4358;42.100;25.222;2023-02-08T12:25:30;5.93;;;3.60;;
8640;SDS011;4358;42.100;25.222;2023-02-08T12:28:05;5.47;;;2.90;;
8640;SDS011;4358;42.100;25.222;2023-02-08T12:30:36;7.70;;;4.07;;
8640;SDS011;4358;42.100;25.222;2023-02-08T12:33:16;7.63;;;4.73;;
8640;SDS011;4358;42.100;25.222;2023-02-08T12:36:01;5.00;;;3.50;;
8640;SDS011;4358;42.100;25.222;2023-02-08T12:38:42;3.67;;;2.93;;
8640;SDS011;4358;42.100;25.222;2023-02-08T12:41:43;8.43;;;3.83;;
8640;SDS011;4358;42.100;25.222;2023-02-08T12:44:29;5.70;;;3.43;;
8640;SDS011;4358;42.100;25.222;2023-02-08T12:47:06;5.93;;;3.63;;
8640;SDS011;4358;42.100;25.222;2023-02-08T12:49:51;11.73;;;5.13;;
8640;SDS011;4358;42.100;25.222;2023-02-08T12:52:30;9.03;;;4.30;;
8640;SDS011;4358;42.100;25.222;2023-02-08T12:55:03;7.10;;;3.40;;
8640;SDS011;4358;42.100;25.222;2023-02-08T12:57:40;6.07;;;2.90;;
8640;SDS011;4358;42.100;25.222;2023-02-08T13:00:15;4.10;;;2.83;;
8640;SDS011;4358;42.100;25.222;2023-02-08T13:02:45;4.97;;;2.57;;
8640;SDS011;4358;42.100;25.222;2023-02-08T13:05:22;6.13;;;3.43;;
8640;SDS011;4358;42.100;25.222;2023-02-08T13:07:54;6.90;;;3.10;;
8640;SDS011;4358;42.100;25.222;2023-02-08T13:10:28;5.30;;;3.43;;
8640;SDS011;4358;42.100;25.222;2023-02-08T13:13:03;11.23;;;3.67;;
8640;SDS011;4358;42.100;25.222;2023-02-08T13:15:38;8.83;;;4.33;;
8640;SDS011;4358;42.100;25.222;2023-02-08T13:18:10;6.50;;;3.40;;
8640;SDS011;4358;42.100;25.222;2023-02-08T13:20:42;6.07;;;2.80;;
8640;SDS011;4358;42.100;25.222;2023-02-08T13:23:17;7.20;;;3.80;;
8640;SDS011;4358;42.100;25.222;2023-02-08T13:25:51;7.00;;;4.23;;
8640;SDS011;4358;42.100;25.222;2023-02-08T13:28:23;7.23;;;4.07;;
8640;SDS011;4358;42.100;25.222;2023-02-08T13:30:52;5.17;;;3.27;;
8640;SDS011;4358;42.100;25.222;2023-02-08T13:33:25;9.63;;;3.00;;
8640;SDS011;4358;42.100;25.222;2023-02-08T13:35:57;6.07;;;3.27;;
8640;SDS011;4358;42.100;25.222;2023-02-08T13:38:26;5.30;;;3.07;;
8640;SDS011;4358;42.100;25.222;2023-02-08T13:41:06;4.20;;;2.43;;
8640;SDS011;4358;42.100;25.222;2023-02-08T13:43:42;4.73;;;3.00;;
8640;SDS011;4358;42.100;25.222;2023-02-08T13:46:14;5.87;;;2.93;;
8640;SDS011;4358;42.100;25.222;2023-02-08T13:48:44;6.47;;;3.13;;
8640;SDS011;4358;42.100;25.222;2023-02-08T13:54:26;6.67;;;3.10;;
8640;SDS011;4358;42.100;25.222;2023-02-08T13:56:53;4.63;;;2.83;;
8640;SDS011;4358;42.100;25.222;2023-02-08T13:59:26;10.33;;;3.33;;
8640;SDS011;4358;42.100;25.222;2023-02-08T14:04:46;5.43;;;3.20;;
8640;SDS011;4358;42.100;25.222;2023-02-08T14:07:18;5.07;;;3.17;;
8640;SDS011;4358;42.100;25.222;2023-02-08T14:10:03;4.10;;;2.60;;
8640;SDS011;4358;42.100;25.222;2023-02-08T14:12:41;4.07;;;2.07;;
8640;SDS011;4358;42.100;25.222;2023-02-08T14:15:27;5.33;;;2.70;;
8640;SDS011;4358;42.100;25.222;2023-02-08T14:17:56;4.60;;;2.47;;
8640;SDS011;4358;42.100;25.222;2023-02-08T14:20:26;3.47;;;2.00;;
8640;SDS011;4358;42.100;25.222;2023-02-08T14:22:57;4.70;;;2.27;;
8640;SDS011;4358;42.100;25.222;2023-02-08T14:25:26;4.90;;;2.17;;
8640;SDS011;4358;42.100;25.222;2023-02-08T14:28:03;3.60;;;2.00;;
8640;SDS011;4358;42.100;25.222;2023-02-08T14:30:34;6.77;;;2.53;;
8640;SDS011;4358;42.100;25.222;2023-02-08T14:33:09;3.57;;;2.33;;
8640;SDS011;4358;42.100;25.222;2023-02-08T14:35:48;5.47;;;3.03;;
8640;SDS011;4358;42.100;25.222;2023-02-08T14:50:22;5.30;;;2.50;;
8640;SDS011;4358;42.100;25.222;2023-02-08T14:52:53;4.03;;;2.20;;
8640;SDS011;4358;42.100;25.222;2023-02-08T14:55:27;2.53;;;2.13;;
8640;SDS011;4358;42.100;25.222;2023-02-08T14:57:57;3.77;;;2.20;;
8640;SDS011;4358;42.100;25.222;2023-02-08T15:00:27;5.03;;;2.50;;
8640;SDS011;4358;42.100;25.222;2023-02-08T15:03:00;4.83;;;2.30;;
8640;SDS011;4358;42.100;25.222;2023-02-08T15:05:30;5.00;;;2.77;;
8640;SDS011;4358;42.100;25.222;2023-02-08T15:08:01;6.07;;;3.63;;
8640;SDS011;4358;42.100;25.222;2023-02-08T15:10:29;6.47;;;3.10;;
8640;SDS011;4358;42.100;25.222;2023-02-08T15:13:00;3.50;;;2.50;;
8640;SDS011;4358;42.100;25.222;2023-02-08T15:15:31;5.20;;;2.80;;
8640;SDS011;4358;42.100;25.222;2023-02-08T15:18:02;9.40;;;3.67;;
8640;SDS011;4358;42.100;25.222;2023-02-08T15:20:32;7.10;;;2.50;;
8640;SDS011;4358;42.100;25.222;2023-02-08T15:23:00;18.57;;;5.17;;
8640;SDS011;4358;42.100;25.222;2023-02-08T15:25:29;8.50;;;3.63;;
8640;SDS011;4358;42.100;25.222;2023-02-08T15:27:58;7.33;;;3.00;;
8640;SDS011;4358;42.100;25.222;2023-02-08T15:30:31;6.77;;;3.43;;
8640;SDS011;4358;42.100;25.222;2023-02-08T15:33:00;16.93;;;4.63;;
8640;SDS011;4358;42.100;25.222;2023-02-08T15:35:33;12.00;;;4.40;;
8640;SDS011;4358;42.100;25.222;2023-02-08T15:38:01;10.97;;;3.83;;
8640;SDS011;4358;42.100;25.222;2023-02-08T15:40:30;20.97;;;7.57;;
8640;SDS011;4358;42.100;25.222;2023-02-08T15:43:03;12.53;;;4.87;;